createdAt,value
2022-12-01T00:00:42.207Z,83.2
2022-12-01T00:02:48.110Z,56.8
2022-12-01T00:03:52.338Z,61.8
2022-12-01T00:05:58.174Z,70.9
2022-12-01T00:08:03.909Z,61.9
2022-12-01T00:10:09.590Z,62.3
2022-12-01T00:12:18.433Z,52.7
2022-12-01T00:14:24.169Z,63.9
2022-12-01T00:16:29.976Z,66.1
2022-12-01T00:18:35.637Z,63.2
2022-12-01T00:22:47.165Z,80.9
2022-12-01T00:24:52.900Z,64.9
2022-12-01T00:27:01.737Z,76.1
2022-12-01T00:29:07.482Z,72
2022-12-01T00:31:13.207Z,66.2
2022-12-01T00:33:18.945Z,74.5
2022-12-01T00:35:24.678Z,76.2
2022-12-01T00:37:30.406Z,77.6
2022-12-01T00:39:36.132Z,86.2
2022-12-01T00:41:44.973Z,72.1
2022-12-01T00:43:50.703Z,60.9
2022-12-01T00:45:56.570Z,60.7
2022-12-01T00:48:02.171Z,86.4
2022-12-01T00:50:07.933Z,69.9
2022-12-01T00:52:13.690Z,77.8
2022-12-01T00:54:19.438Z,71.3
2022-12-01T00:56:28.236Z,66.9
2022-12-01T00:58:33.981Z,67.1
2022-12-01T01:00:39.772Z,86.7
2022-12-01T01:03:49.938Z,79.8
2022-12-01T01:08:01.512Z,59.3
2022-12-01T01:10:10.259Z,86
2022-12-01T01:12:15.987Z,68.9
2022-12-01T01:14:21.723Z,82
2022-12-01T01:16:27.553Z,63.6
2022-12-01T01:18:33.174Z,61.3
2022-12-01T01:20:38.930Z,76.9
2022-12-01T01:22:44.643Z,67.1
2022-12-01T01:24:53.492Z,69.6
2022-12-01T01:26:59.252Z,73.6
2022-12-01T01:29:04.973Z,63.3
2022-12-01T01:31:10.771Z,59.3
2022-12-01T01:33:16.479Z,64.2
2022-12-01T01:37:27.976Z,65.5
2022-12-01T01:39:36.787Z,80.8
2022-12-01T01:41:42.530Z,81.5
2022-12-01T01:43:48.294Z,70
2022-12-01T01:45:54.104Z,103
2022-12-01T01:47:59.788Z,82.9
2022-12-01T01:50:05.506Z,71.9
2022-12-01T01:52:11.215Z,83.6
2022-12-01T01:54:20.054Z,88.5
2022-12-01T02:01:03.159Z,82.7
2022-12-01T02:03:08.802Z,99.4
2022-12-01T02:05:14.604Z,89.6
2022-12-01T02:07:23.423Z,86.3
2022-12-01T02:09:29.138Z,89.8
2022-12-01T02:11:34.864Z,107.8
2022-12-01T02:13:40.616Z,99.7
2022-12-01T02:15:46.367Z,78.4
2022-12-01T02:17:52.113Z,116.1
2022-12-01T02:19:57.844Z,76.5
2022-12-01T02:22:06.683Z,109.5
2022-12-01T02:24:12.425Z,84.7
2022-12-01T02:26:18.170Z,87.4
2022-12-01T02:28:23.926Z,90.4
2022-12-01T02:30:29.705Z,86.4
2022-12-01T02:32:35.401Z,87.1
2022-12-01T02:34:41.161Z,64.6
2022-12-01T02:36:49.947Z,75
2022-12-01T02:38:55.705Z,62.9
2022-12-01T02:41:01.436Z,77.2
2022-12-01T02:43:07.166Z,87.1
2022-12-01T02:45:12.906Z,94.2
2022-12-01T02:47:18.648Z,83.5
2022-12-01T02:49:24.377Z,80.1
2022-12-01T02:51:33.159Z,92.1
2022-12-01T02:53:38.926Z,82.5
2022-12-01T02:55:44.649Z,77.6
2022-12-01T02:56:49.091Z,91.3
2022-12-01T02:58:54.815Z,88.7
2022-12-01T03:01:00.626Z,75.7
2022-12-01T03:03:06.369Z,79.6
2022-12-01T03:05:15.116Z,99
2022-12-01T03:07:20.937Z,81.4
2022-12-01T03:09:26.617Z,72.9
2022-12-01T03:11:32.382Z,91.1
2022-12-01T03:13:38.118Z,78.8
2022-12-01T03:15:44.067Z,77.3
2022-12-01T03:17:49.446Z,78.8
2022-12-01T03:19:58.246Z,74.7
2022-12-01T03:22:04.006Z,67.7
2022-12-01T03:24:09.699Z,75.3
2022-12-01T03:26:15.458Z,89.5
2022-12-01T03:32:32.691Z,82.5
2022-12-01T03:34:41.517Z,77.1
2022-12-01T03:45:10.181Z,79.2
2022-12-01T03:47:15.921Z,74.5
2022-12-01T03:49:24.771Z,71.1
2022-12-01T03:51:30.394Z,68.5
2022-12-01T03:53:36.152Z,68
2022-12-01T04:05:12.252Z,73.5
2022-12-01T04:07:18.009Z,77.2
2022-12-01T04:09:23.746Z,65.4
2022-12-01T04:11:32.587Z,79.3
2022-12-01T04:13:35.220Z,86.2
2022-12-01T04:15:41.033Z,68.9
2022-12-01T04:17:49.741Z,72.4
2022-12-01T04:19:55.489Z,66.6
2022-12-01T04:22:01.236Z,68.5
2022-12-01T04:24:06.939Z,76.9
2022-12-01T04:26:15.581Z,81.9
2022-12-01T04:28:18.422Z,78.4
2022-12-01T04:32:32.993Z,78.2
2022-12-01T04:36:44.463Z,75.6
2022-12-01T04:38:50.228Z,89.3
2022-12-01T04:40:55.959Z,76.9
2022-12-01T04:43:01.683Z,88.7
2022-12-01T04:45:07.427Z,81.9
2022-12-01T04:49:21.975Z,86.4
2022-12-01T04:51:27.734Z,87.7
2022-12-01T04:52:35.265Z,90.9
2022-12-01T04:54:37.868Z,75.9
2022-12-01T04:56:43.583Z,96
2022-12-01T04:58:50.911Z,83.3
2022-12-01T05:00:59.720Z,100.8
2022-12-01T05:03:05.594Z,105.5
2022-12-01T05:05:11.166Z,95
2022-12-01T05:09:22.653Z,104.8
2022-12-01T05:13:34.136Z,91.9
2022-12-01T05:15:42.959Z,94
2022-12-01T05:17:48.702Z,100.7
2022-12-01T05:19:54.428Z,111.2
2022-12-01T05:22:00.219Z,84.6
2022-12-01T05:24:05.916Z,103.5
2022-12-01T05:26:11.652Z,88.4
2022-12-01T05:28:17.381Z,79.8
2022-12-01T05:30:28.795Z,99.3
2022-12-01T05:32:31.938Z,80.3
2022-12-01T05:34:37.649Z,94
2022-12-01T05:36:43.413Z,100.2
2022-12-01T05:38:49.138Z,107.7
2022-12-01T05:40:54.857Z,101.4
2022-12-01T05:43:00.595Z,108.7
2022-12-01T05:45:09.376Z,117
2022-12-01T05:47:15.126Z,109.2
2022-12-01T05:49:20.865Z,92.6
2022-12-01T05:56:03.875Z,100.1
2022-12-01T06:02:24.185Z,105.6
2022-12-01T06:04:29.925Z,85
2022-12-01T06:06:35.603Z,90.8
2022-12-01T06:08:41.330Z,105.9
2022-12-01T06:10:47.055Z,136.5
2022-12-01T06:15:01.623Z,94.3
2022-12-01T06:17:07.339Z,100.6
2022-12-01T06:19:13.059Z,104.4
2022-12-01T06:21:18.792Z,106.3
2022-12-01T06:23:29.983Z,97.6
2022-12-01T06:25:30.272Z,81.1
2022-12-01T06:27:39.072Z,91.1
2022-12-01T06:29:44.812Z,96.7
2022-12-01T06:31:50.564Z,81.9
2022-12-01T06:33:56.285Z,103.8
2022-12-01T06:36:02.016Z,83.2
2022-12-01T06:38:07.761Z,103.3
2022-12-01T06:40:13.485Z,113.4
2022-12-01T06:42:22.296Z,89.1
2022-12-01T06:46:33.800Z,90
2022-12-01T06:47:38.162Z,90.2
2022-12-01T06:49:43.905Z,93
2022-12-01T06:51:49.645Z,98.1
2022-12-01T06:53:55.377Z,108.5
2022-12-01T06:56:04.225Z,93
2022-12-01T06:58:09.949Z,85
2022-12-01T07:00:15.673Z,87
2022-12-01T07:02:21.515Z,82
2022-12-01T07:04:27.153Z,92.4
2022-12-01T07:06:32.873Z,83.7
2022-12-01T07:08:38.611Z,92.4
2022-12-01T07:10:47.416Z,103.6
2022-12-01T07:12:53.137Z,92.5
2022-12-01T07:14:58.891Z,94.5
2022-12-01T07:17:04.693Z,108.8
2022-12-01T07:19:10.388Z,87.1
2022-12-01T07:21:16.094Z,98.8
2022-12-01T07:23:21.850Z,98.3
2022-12-01T07:25:30.660Z,105.2
2022-12-01T07:27:36.401Z,109.6
2022-12-01T07:29:42.161Z,107.1
2022-12-01T07:31:47.892Z,100.8
2022-12-01T07:33:53.603Z,96
2022-12-01T07:35:59.462Z,91
2022-12-01T07:38:05.088Z,105.4
2022-12-01T07:40:14.202Z,103.1
2022-12-01T07:42:19.612Z,90.1
2022-12-01T07:44:25.345Z,118.3
2022-12-01T07:45:29.760Z,108.1
2022-12-01T07:49:41.269Z,120.2
2022-12-01T07:51:46.951Z,95.4
2022-12-01T07:53:55.770Z,113.9
2022-12-01T07:56:05.663Z,97
2022-12-01T08:00:12.970Z,100.9
2022-12-01T08:02:18.818Z,88.4
2022-12-01T08:04:24.439Z,89.7
2022-12-01T08:08:38.976Z,87.6
2022-12-01T08:10:44.694Z,88.6
2022-12-01T08:12:50.409Z,104
2022-12-01T08:14:56.155Z,97.3
2022-12-01T08:17:01.877Z,76.7
2022-12-01T08:19:07.618Z,101.6
2022-12-01T08:23:22.161Z,105
2022-12-01T08:27:33.601Z,85.9
2022-12-01T08:33:50.793Z,92.8
2022-12-01T08:35:56.519Z,115.8
2022-12-01T08:38:05.324Z,98.4
2022-12-01T08:40:11.067Z,90.2
2022-12-01T08:43:49.451Z,97.9
2022-12-01T08:45:26.945Z,101
2022-12-01T08:47:32.656Z,88.7
2022-12-01T08:49:38.442Z,97.9
2022-12-01T08:51:47.206Z,85.6
2022-12-01T08:53:52.950Z,86.2
2022-12-01T08:55:58.670Z,103.6
2022-12-01T08:58:04.413Z,101.3
2022-12-01T09:00:10.202Z,87.2
2022-12-01T09:02:15.957Z,91.2
2022-12-01T09:04:21.650Z,81.5
2022-12-01T09:06:30.456Z,99
2022-12-01T09:08:36.212Z,109.9
2022-12-01T09:10:41.942Z,101.9
2022-12-01T09:12:47.693Z,97.4
2022-12-01T09:14:53.451Z,102.9
2022-12-01T09:16:59.169Z,107.2
2022-12-01T09:19:04.913Z,91.1
2022-12-01T09:21:13.735Z,102.7
2022-12-01T09:25:25.217Z,99.5
2022-12-01T09:27:30.966Z,98.9
2022-12-01T09:29:36.728Z,89.5
2022-12-01T09:31:42.512Z,104.6
2022-12-01T09:33:48.218Z,95.7
2022-12-01T09:35:57.021Z,89.2
2022-12-01T09:38:02.770Z,102.9
2022-12-01T09:40:08.545Z,97.5
2022-12-01T09:42:40.085Z,85
2022-12-01T09:44:45.792Z,95.1
2022-12-01T09:46:51.630Z,97.5
2022-12-01T09:49:00.377Z,82.8
2022-12-01T09:53:11.883Z,92.4
2022-12-01T09:55:17.611Z,96.6
2022-12-01T09:57:23.339Z,91.3
2022-12-01T10:01:34.906Z,109.6
2022-12-01T10:03:43.661Z,100.3
2022-12-01T10:06:18.621Z,98
2022-12-01T10:07:55.194Z,88.4
2022-12-01T10:10:00.900Z,92.2
2022-12-01T10:12:06.673Z,76.2
2022-12-01T10:14:17.978Z,97.6
2022-12-01T10:16:18.205Z,90.7
2022-12-01T10:20:32.712Z,94.6
2022-12-01T10:24:44.205Z,91.2
2022-12-01T10:26:49.937Z,87.8
2022-12-01T10:28:55.668Z,86.4
2022-12-01T10:31:01.428Z,92.9
2022-12-01T10:33:10.232Z,104
2022-12-01T10:35:15.990Z,90.7
2022-12-01T10:37:21.817Z,109.1
2022-12-01T10:38:26.150Z,104.6
2022-12-01T10:40:31.899Z,91.3
2022-12-01T10:42:37.666Z,102.8
2022-12-01T10:44:43.413Z,84.4
2022-12-01T10:46:52.197Z,89.9
2022-12-01T10:55:15.228Z,85.1
2022-12-01T10:57:21.000Z,106.5
2022-12-01T10:59:26.723Z,95.5
2022-12-01T11:01:37.369Z,87
2022-12-01T11:03:42.953Z,102.8
2022-12-01T11:05:48.653Z,123
2022-12-01T11:07:54.469Z,93
2022-12-01T11:10:00.179Z,113.4
2022-12-01T11:12:05.934Z,101.5
2022-12-01T11:14:11.694Z,89.3
2022-12-01T11:16:20.591Z,98.7
2022-12-01T11:18:26.293Z,105
2022-12-01T11:20:32.132Z,101.7
2022-12-01T11:22:37.793Z,95.5
2022-12-01T11:24:43.568Z,97.1
2022-12-01T11:26:49.330Z,93.2
2022-12-01T11:28:55.096Z,84.2
2022-12-01T11:36:19.895Z,98.5
2022-12-01T11:38:30.103Z,78.4
2022-12-01T11:40:31.407Z,84.4
2022-12-01T11:42:37.185Z,77.8
2022-12-01T11:44:51.931Z,91.3
2022-12-01T11:47:07.801Z,83.7
2022-12-01T11:48:57.565Z,74.7
2022-12-01T11:51:03.348Z,84
2022-12-01T11:57:33.872Z,71.2
2022-12-01T11:59:29.440Z,87.3
2022-12-01T12:01:35.214Z,78.5
2022-12-01T12:03:41.043Z,77.6
2022-12-01T12:05:46.774Z,81.5
2022-12-01T12:07:52.673Z,83.1
2022-12-01T12:09:58.338Z,74.5
2022-12-01T12:12:04.116Z,85.1
2022-12-01T12:14:12.933Z,79.8
2022-12-01T12:16:18.699Z,80.2
2022-12-01T12:18:24.469Z,85.3
2022-12-01T12:20:30.230Z,99
2022-12-01T12:22:35.989Z,68.8
2022-12-01T12:24:41.770Z,101.3
2022-12-01T12:26:47.540Z,98.5
2022-12-01T12:28:56.341Z,83.7
2022-12-01T12:31:02.660Z,82.4
2022-12-01T12:34:12.610Z,102.1
2022-12-01T12:36:18.358Z,85.5
2022-12-01T12:44:44.515Z,85.5
2022-12-01T12:46:50.384Z,81.6
2022-12-01T12:49:18.734Z,78.8
2022-12-01T12:51:02.047Z,87.8
2022-12-01T12:53:07.636Z,77.3
2022-12-01T12:55:13.409Z,93.3
2022-12-01T13:01:33.927Z,73.2
2022-12-01T13:05:45.343Z,90.7
2022-12-01T13:07:51.188Z,60.3
2022-12-01T13:10:00.547Z,72.1
2022-12-01T13:12:05.742Z,71.8
2022-12-01T13:14:11.513Z,79.6
2022-12-01T13:16:17.502Z,83.2
2022-12-01T13:18:23.271Z,87.8
2022-12-01T13:20:28.823Z,90.2
2022-12-01T13:22:34.568Z,63.4
2022-12-01T13:24:40.352Z,70.5
2022-12-01T13:26:49.160Z,62.2
2022-12-01T13:28:54.958Z,68.8
2022-12-01T13:33:32.297Z,66
2022-12-01T13:35:38.079Z,64.5
2022-12-01T13:37:43.841Z,53.4
2022-12-01T13:39:52.705Z,72.3
2022-12-01T13:44:04.221Z,60.1
2022-12-01T13:46:10.086Z,70.2
2022-12-01T13:48:15.797Z,68.4
2022-12-01T13:52:27.373Z,63.5
2022-12-01T13:54:36.225Z,80.3
2022-12-01T13:56:42.669Z,63.2
2022-12-01T13:58:48.451Z,62.5
2022-12-01T14:00:54.277Z,64.4
2022-12-01T14:03:00.118Z,73
2022-12-01T14:05:05.841Z,66.3
2022-12-01T14:07:11.581Z,60.6
2022-12-01T14:09:20.447Z,62.4
2022-12-01T14:11:26.234Z,61.2
2022-12-01T14:13:32.029Z,70.2
2022-12-01T14:15:37.789Z,64.3
2022-12-01T14:17:43.684Z,61
2022-12-01T14:19:49.369Z,78.6
2022-12-01T14:21:55.747Z,69.1
2022-12-01T14:24:04.621Z,64.6
2022-12-01T14:26:10.407Z,81
2022-12-01T14:28:16.191Z,86.6
2022-12-01T14:29:20.578Z,67.8
2022-12-01T14:31:26.408Z,73.7
2022-12-01T14:33:32.151Z,89.4
2022-12-01T14:35:37.925Z,72.2
2022-12-01T14:37:46.748Z,74.2
2022-12-01T14:39:52.533Z,61.2
2022-12-01T14:41:58.305Z,68.9
2022-12-01T14:44:04.077Z,79.2
2022-12-01T14:46:09.841Z,73.5
2022-12-01T14:48:15.612Z,73.3
2022-12-01T14:50:21.362Z,64.8
2022-12-01T14:52:30.298Z,68.3
2022-12-01T14:58:47.549Z,99.9
2022-12-01T15:02:59.066Z,72.3
2022-12-01T15:05:04.851Z,61
2022-12-01T15:09:34.381Z,62.5
2022-12-01T15:11:25.202Z,61.4
2022-12-01T15:13:30.988Z,61.6
2022-12-01T15:15:36.749Z,76.8
2022-12-01T15:17:42.509Z,65.1
2022-12-01T15:19:48.715Z,74.8
2022-12-01T15:21:57.093Z,64
2022-12-01T15:24:02.865Z,85.3
2022-12-01T15:26:08.648Z,69.7
2022-12-01T15:29:18.791Z,78.3
2022-12-01T15:31:24.693Z,70.6
2022-12-01T15:33:35.424Z,80.1
2022-12-01T15:35:39.177Z,72.8
2022-12-01T15:37:44.960Z,77.8
2022-12-01T15:39:50.697Z,75.1
2022-12-01T15:41:56.450Z,72.7
2022-12-01T15:44:02.187Z,69.9
2022-12-01T15:46:07.991Z,69.5
2022-12-01T15:48:13.713Z,67.2
2022-12-01T15:52:28.310Z,71.1
2022-12-01T15:56:39.808Z,68.4
2022-12-01T15:58:45.575Z,61.6
2022-12-01T16:02:57.210Z,67.6
2022-12-01T16:05:05.929Z,72.8
2022-12-01T16:09:17.431Z,81.7
2022-12-01T16:13:28.963Z,76.8
2022-12-01T16:15:34.770Z,78.3
2022-12-01T16:17:40.517Z,80.8
2022-12-01T16:19:49.391Z,58
2022-12-01T16:21:55.134Z,68.3
2022-12-01T16:25:05.308Z,66
2022-12-01T16:27:11.074Z,67.7
2022-12-01T16:29:16.973Z,78.6
2022-12-01T16:31:22.675Z,81.7
2022-12-01T16:33:31.437Z,74.2
2022-12-01T16:35:37.202Z,76.8
2022-12-01T16:37:42.961Z,78.2
2022-12-01T16:39:48.715Z,67.1
2022-12-01T16:41:54.498Z,86.5
2022-12-01T16:44:27.144Z,67
2022-12-01T16:46:06.083Z,69.9
2022-12-01T16:48:14.827Z,88
2022-12-01T16:50:20.579Z,72.3
2022-12-01T16:52:45.531Z,78.8
2022-12-01T16:54:32.109Z,72.8
2022-12-01T16:56:37.884Z,66.7
2022-12-01T17:03:00.003Z,86.5
2022-12-01T17:05:05.567Z,79.3
2022-12-01T17:07:11.326Z,70.5
2022-12-01T17:09:17.092Z,69.1
2022-12-01T17:17:43.212Z,83.1
2022-12-01T17:19:48.953Z,79.7
2022-12-01T17:21:54.705Z,102.3
2022-12-01T17:24:26.272Z,84.8
2022-12-01T17:26:32.023Z,78.4
2022-12-01T17:28:37.784Z,76.6
2022-12-01T17:30:46.657Z,88.2
2022-12-01T17:32:52.372Z,62.2
2022-12-01T17:34:58.127Z,80.4
2022-12-01T17:39:09.628Z,66.8
2022-12-01T17:43:21.155Z,77.7
2022-12-01T17:45:29.996Z,79
2022-12-01T17:47:35.729Z,77.9
2022-12-01T17:49:41.518Z,67.9
2022-12-01T17:51:47.304Z,64.9
2022-12-01T17:55:58.761Z,55.6
2022-12-01T17:58:04.533Z,65.8
2022-12-01T18:02:19.074Z,74.9
2022-12-01T18:04:24.807Z,79.1
2022-12-01T18:06:30.562Z,69.3
2022-12-01T18:08:36.315Z,77
2022-12-01T18:10:42.053Z,78.4
2022-12-01T18:12:48.077Z,75.5
2022-12-01T18:14:56.649Z,61.9
2022-12-01T18:17:02.387Z,63.2
2022-12-01T18:19:08.140Z,62.4
2022-12-01T18:20:12.585Z,64.8
2022-12-01T18:22:18.327Z,76.3
2022-12-01T18:24:24.090Z,84.3
2022-12-01T18:26:29.814Z,66.7
2022-12-01T18:28:38.658Z,63.2
2022-12-01T18:30:44.431Z,76.4
2022-12-01T18:32:50.155Z,64.4
2022-12-01T18:34:55.905Z,71.8
2022-12-01T18:37:01.635Z,53.1
2022-12-01T18:39:07.391Z,70.9
2022-12-01T18:41:13.136Z,75
2022-12-01T18:43:21.976Z,64
2022-12-01T18:45:27.732Z,73.7
2022-12-01T18:47:33.461Z,64.5
2022-12-01T18:49:39.246Z,67.4
2022-12-01T18:51:45.003Z,77.1
2022-12-01T18:53:50.766Z,85
2022-12-01T18:55:56.519Z,80.4
2022-12-01T18:58:05.350Z,94.9
2022-12-01T19:00:11.085Z,90.9
2022-12-01T19:02:16.947Z,84.3
2022-12-01T19:04:22.636Z,108
2022-12-01T19:06:28.359Z,91.8
2022-12-01T19:08:34.091Z,101
2022-12-01T19:10:39.872Z,85.9
2022-12-01T19:12:48.681Z,91.1
2022-12-01T19:14:54.425Z,103.5
2022-12-01T19:17:00.168Z,92.2
2022-12-01T19:20:10.356Z,102.2
2022-12-01T19:22:16.118Z,107.1
2022-12-01T19:24:21.844Z,90.8
2022-12-01T19:26:30.670Z,77.3
2022-12-01T19:28:36.426Z,105
2022-12-01T19:30:46.737Z,73.3
2022-12-01T19:32:47.899Z,87.2
2022-12-01T19:34:53.665Z,90.2
2022-12-01T19:39:07.759Z,105.9
2022-12-01T19:43:19.724Z,102.6
2022-12-01T19:45:25.445Z,97.8
2022-12-01T19:49:36.945Z,93.4
2022-12-01T19:51:42.687Z,82.9
2022-12-01T19:53:48.417Z,98.2
2022-12-01T20:06:26.014Z,80.2
2022-12-01T20:08:35.569Z,94.5
2022-12-01T20:12:46.355Z,87.9
2022-12-01T20:14:52.462Z,91.3
2022-12-01T20:15:56.433Z,103.4
2022-12-01T20:20:07.950Z,107.8
2022-12-01T20:22:13.689Z,94
2022-12-01T20:24:22.511Z,93.7
2022-12-01T20:26:30.573Z,107.7
2022-12-01T20:28:33.994Z,117.3
2022-12-01T20:30:39.750Z,102.3
2022-12-01T20:32:45.459Z,114
2022-12-01T20:34:51.643Z,98.5
2022-12-01T20:36:56.944Z,99.8
2022-12-01T20:39:05.777Z,102.1
2022-12-01T20:41:11.550Z,111.3
2022-12-01T20:43:17.251Z,104.9
2022-12-01T20:45:23.023Z,119.2
2022-12-01T20:47:28.749Z,118.3
2022-12-01T20:49:34.465Z,89.1
2022-12-01T20:51:40.231Z,104.4
2022-12-01T20:54:12.341Z,120.1
2022-12-01T20:55:54.761Z,98.1
2022-12-01T20:58:00.508Z,96.8
2022-12-01T21:00:06.405Z,97.7
2022-12-01T21:02:12.010Z,109.5
2022-12-01T21:04:17.698Z,102.6
2022-12-01T21:06:23.446Z,89.9
2022-12-01T21:08:32.274Z,105.1
2022-12-01T21:10:37.987Z,99.6
2022-12-01T21:12:43.702Z,99.4
2022-12-01T21:15:15.219Z,97.4
2022-12-01T21:17:20.983Z,81.6
2022-12-01T21:19:26.726Z,97.2
2022-12-01T21:23:41.278Z,88.8
2022-12-01T21:25:47.026Z,104.5
2022-12-01T21:27:52.749Z,89.3
2022-12-01T21:29:58.471Z,85.5
2022-12-01T21:32:04.199Z,91.5
2022-12-01T21:34:09.941Z,110.2
2022-12-01T21:36:18.753Z,93.3
2022-12-01T21:38:24.471Z,88.9
2022-12-01T21:40:30.192Z,90.9
2022-12-01T21:42:35.914Z,88.2
2022-12-01T21:46:47.396Z,96.1
2022-12-01T21:48:53.124Z,90.9
2022-12-01T21:51:01.921Z,112
2022-12-01T21:53:07.665Z,102.8
2022-12-01T21:57:19.123Z,105.2
2022-12-01T22:03:36.284Z,91.3
2022-12-01T22:06:01.145Z,98.7
2022-12-01T22:07:50.840Z,100.2
2022-12-01T22:09:56.529Z,101.5
2022-12-01T22:11:00.925Z,103.1
2022-12-01T22:15:12.398Z,94.6
2022-12-01T22:17:18.063Z,93.1
2022-12-01T22:19:26.892Z,122
2022-12-01T22:21:32.600Z,92.5
2022-12-01T22:23:38.340Z,103
2022-12-01T22:27:49.804Z,100.3
2022-12-01T22:32:01.231Z,104.7
2022-12-01T22:34:10.029Z,103.5
2022-12-01T22:40:27.186Z,91
2022-12-01T22:44:38.635Z,100.5
2022-12-01T22:46:44.396Z,93.1
2022-12-01T22:50:58.891Z,106.7
2022-12-01T22:55:10.317Z,96.6
2022-12-01T22:59:21.766Z,102
2022-12-01T23:01:27.521Z,100.2
2022-12-01T23:03:36.382Z,99.7
2022-12-01T23:05:43.597Z,121.9
2022-12-01T23:07:49.305Z,103.7
2022-12-01T23:08:53.618Z,92.8
2022-12-01T23:10:59.335Z,95.2
2022-12-01T23:13:05.051Z,88.2
2022-12-01T23:15:10.783Z,109.1
2022-12-01T23:17:19.582Z,100.9
2022-12-01T23:19:25.298Z,98.7
2022-12-01T23:21:30.982Z,90.9
2022-12-01T23:25:42.436Z,101
2022-12-01T23:27:48.140Z,103.9
2022-12-01T23:29:53.847Z,93.7
2022-12-01T23:32:02.622Z,91.7
2022-12-01T23:34:08.345Z,87
2022-12-01T23:36:14.089Z,93.8
2022-12-01T23:38:19.799Z,106
2022-12-01T23:40:25.487Z,110.8
2022-12-01T23:42:31.214Z,105.9
2022-12-01T23:44:36.916Z,124.7
2022-12-01T23:48:51.441Z,112.1
2022-12-01T23:50:57.127Z,85.6
2022-12-01T23:53:02.841Z,94.3
2022-12-01T23:55:08.548Z,103.9
2022-12-01T23:57:14.299Z,107
2022-12-01T23:59:19.975Z,99.6
